| time (UTC) | temp F | wind direction | speed MPH | gust MPH | rain 1hr in | rain 24hr in | rain mn in | humidity % | barometer mb |
| 20260510230723 | 68 | 255 | 0.0 | 2.0 | 0.00 | 0.00 | 0.00 | 68 | 1014.4 |
| 20260510224724 | 68 | 237 | 0.0 | 1.0 | 0.00 | 0.00 | 0.00 | 68 | 1014.0 |
| 20260510224225 | 68 | 235 | 0.0 | 2.0 | 0.00 | 0.00 | 0.00 | 67 | 1013.9 |
| 20260510223725 | 68 | 303 | 1.0 | 2.0 | 0.00 | 0.00 | 0.00 | 69 | 1013.9 |
| 20260510223224 | 68 | 265 | 0.0 | 3.0 | 0.00 | 0.00 | 0.00 | 68 | 1013.9 |
| 20260510222224 | 69 | 280 | 0.0 | 6.0 | 0.00 | 0.00 | 0.00 | 69 | 1013.8 |
| 20260510221725 | 69 | 272 | 0.0 | 6.0 | 0.00 | 0.00 | 0.00 | 70 | 1013.9 |
| 20260510220724 | 69 | 265 | 1.0 | 2.0 | 0.00 | 0.02 | 0.00 | 71 | 1013.7 |
| 20260510220225 | 68 | 265 | 0.0 | 2.0 | 0.00 | 0.03 | 0.00 | 72 | 1013.8 |
| 20260510215725 | 67 | 236 | 0.0 | 1.0 | 0.00 | 0.04 | 0.00 | 78 | 1013.8 |
| 20260510215224 | 68 | 268 | 0.0 | 0.0 | 0.00 | 0.05 | 0.00 | 80 | 1014.1 |
| 20260510214225 | 67 | 248 | 0.0 | 2.0 | 0.00 | 0.06 | 0.00 | 81 | 1013.9 |
| 20260510213724 | 67 | 234 | 0.0 | 2.0 | 0.00 | 0.07 | 0.00 | 81 | 1013.7 |
| 20260510213224 | 67 | 235 | 0.0 | 1.0 | 0.00 | 0.10 | 0.00 | 81 | 1013.7 |
| 20260510212724 | 67 | 279 | 0.0 | 1.0 | 0.00 | 0.10 | 0.00 | 80 | 1013.6 |
| 20260510211723 | 68 | 235 | 0.0 | 1.0 | 0.00 | 0.10 | 0.00 | 79 | 1013.3 |
| 20260510210223 | 69 | 242 | 0.0 | 2.0 | 0.00 | 0.10 | 0.00 | 78 | 1013.0 |
| 20260510205723 | 68 | 234 | 0.0 | 2.0 | 0.00 | 0.10 | 0.00 | 78 | 1013.0 |
| 20260510205224 | 68 | 206 | 0.0 | 3.0 | 0.00 | 0.10 | 0.00 | 77 | 1012.9 |
| 20260510204723 | 68 | 215 | 0.0 | 3.0 | 0.00 | 0.10 | 0.00 | 77 | 1013.1 |
| 20260510204224 | 69 | 230 | 0.0 | 2.0 | 0.00 | 0.10 | 0.00 | 76 | 1012.9 |
| 20260510203723 | 69 | 229 | 0.0 | 3.0 | 0.00 | 0.10 | 0.00 | 76 | 1013.2 |
| 20260510202722 | 71 | 299 | 0.0 | 2.0 | 0.00 | 0.10 | 0.00 | 73 | 1012.7 |
| 20260510201722 | 75 | 237 | 0.0 | 4.0 | 0.00 | 0.10 | 0.00 | 64 | 1012.6 |
| 20260510201222 | 76 | 202 | 1.0 | 4.0 | 0.00 | 0.10 | 0.00 | 56 | 1012.5 |
| 20260510200723 | 76 | 237 | 1.0 | 4.0 | 0.00 | 0.10 | 0.00 | 54 | 1012.6 |
| 20260510200222 | 76 | 270 | 1.0 | 6.0 | 0.00 | 0.10 | 0.00 | 56 | 1012.7 |
| 20260510195722 | 75 | 274 | 2.0 | 10.0 | 0.00 | 0.10 | 0.00 | 56 | 1012.8 |
| 20260510194722 | 76 | 223 | 2.0 | 8.0 | 0.00 | 0.10 | 0.00 | 55 | 1012.8 |
| 20260510194222 | 74 | 239 | 0.0 | 2.0 | 0.00 | 0.10 | 0.00 | 68 | 1012.9 |
| 20260510193724 | 75 | 331 | 0.0 | 2.0 | 0.00 | 0.10 | 0.00 | 68 | 1012.8 |
| 20260510193223 | 78 | 191 | 2.0 | 2.0 | 0.00 | 0.10 | 0.00 | 64 | 1013.0 |
| 20260510192723 | 78 | 248 | 0.0 | 8.0 | 0.00 | 0.10 | 0.00 | 57 | 1013.0 |
| 20260510191722 | 76 | 172 | 1.0 | 8.0 | 0.00 | 0.10 | 0.00 | 59 | 1012.8 |
| 20260510191222 | 74 | 273 | 2.0 | 8.0 | 0.00 | 0.10 | 0.00 | 64 | 1013.0 |
| 20260510190722 | 73 | 253 | 2.0 | 4.0 | 0.00 | 0.10 | 0.00 | 66 | 1013.1 |
| 20260510190222 | 72 | 14 | 1.0 | 2.0 | 0.00 | 0.10 | 0.00 | 71 | 1013.1 |
| 20260510185723 | 72 | 240 | 1.0 | 2.0 | 0.00 | 0.10 | 0.00 | 71 | 1013.1 |
| 20260510185222 | 72 | 317 | 1.0 | 3.0 | 0.00 | 0.10 | 0.00 | 71 | 1013.0 |
| 20260510184222 | 73 | 237 | 2.0 | 7.0 | 0.00 | 0.10 | 0.00 | 65 | 1012.9 |
| 20260510183723 | 74 | 191 | 1.0 | 7.0 | 0.00 | 0.10 | 0.00 | 64 | 1013.0 |
| 20260510182724 | 77 | 257 | 2.0 | 4.0 | 0.00 | 0.12 | 0.00 | 61 | 1013.2 |
| 20260510182223 | 76 | 276 | 0.0 | 7.0 | 0.00 | 0.13 | 0.00 | 61 | 1013.0 |
| 20260510181723 | 75 | 289 | 2.0 | 7.0 | 0.00 | 0.15 | 0.00 | 64 | 1013.0 |
| 20260510180223 | 76 | 236 | 2.0 | 9.0 | 0.00 | 0.16 | 0.00 | 62 | 1013.2 |
| 20260510175723 | 75 | 250 | 1.0 | 9.0 | 0.00 | 0.16 | 0.00 | 63 | 1013.3 |
| 20260510175223 | 76 | 221 | 1.0 | 3.0 | 0.00 | 0.16 | 0.00 | 63 | 1013.4 |
| 20260510174723 | 75 | 202 | 1.0 | 3.0 | 0.00 | 0.16 | 0.00 | 65 | 1013.2 |
| 20260510174223 | 74 | 228 | 1.0 | 3.0 | 0.00 | 0.16 | 0.00 | 71 | 1013.3 |
| 20260510173723 | 73 | 247 | 0.0 | 3.0 | 0.00 | 0.16 | 0.00 | 70 | 1013.4 |
| 20260510173223 | 73 | 234 | 0.0 | 4.0 | 0.00 | 0.16 | 0.00 | 71 | 1013.3 |
| 20260510172723 | 73 | 230 | 0.0 | 4.0 | 0.00 | 0.16 | 0.00 | 71 | 1013.4 |
| 20260510172222 | 74 | 223 | 1.0 | 1.0 | 0.00 | 0.16 | 0.00 | 70 | 1013.1 |
| 20260510171723 | 73 | 234 | 0.0 | 2.0 | 0.00 | 0.16 | 0.00 | 71 | 1013.3 |
| 20260510171223 | 73 | 260 | 1.0 | 2.0 | 0.00 | 0.16 | 0.00 | 71 | 1013.3 |
| 20260510170722 | 73 | 235 | 0.0 | 2.0 | 0.00 | 0.16 | 0.00 | 72 | 1013.3 |
| 20260510170223 | 72 | 247 | 1.0 | 1.0 | 0.00 | 0.16 | 0.00 | 73 | 1013.6 |
| 20260510165723 | 70 | 242 | 0.0 | 2.0 | 0.00 | 0.16 | 0.00 | 78 | 1013.5 |
| 20260510164723 | 69 | 70 | 2.0 | 3.0 | 0.00 | 0.16 | 0.00 | 77 | 1013.4 |
| 20260510164222 | 68 | 253 | 0.0 | 3.0 | 0.00 | 0.16 | 0.00 | 78 | 1013.6 |
| 20260510163222 | 68 | 241 | 0.0 | 3.0 | 0.00 | 0.16 | 0.00 | 78 | 1013.8 |
| 20260510162722 | 67 | 261 | 0.0 | 3.0 | 0.00 | 0.16 | 0.00 | 82 | 1013.6 |
| 20260510162224 | 67 | 348 | 2.0 | 2.0 | 0.00 | 0.16 | 0.00 | 80 | 1013.7 |
| 20260510161223 | 66 | 237 | 1.0 | 4.0 | 0.00 | 0.16 | 0.00 | 82 | 1013.9 |
| 20260510160724 | 65 | 266 | 2.0 | 4.0 | 0.00 | 0.16 | 0.00 | 82 | 1014.0 |
| 20260510160224 | 64 | 269 | 0.0 | 3.0 | 0.00 | 0.16 | 0.00 | 85 | 1013.9 |
| 20260510155723 | 64 | 297 | 2.0 | 3.0 | 0.00 | 0.16 | 0.00 | 84 | 1014.2 |
| 20260510154723 | 63 | 283 | 2.0 | 3.0 | 0.00 | 0.16 | 0.00 | 88 | 1013.8 |
| 20260510154223 | 62 | 177 | 2.0 | 3.0 | 0.00 | 0.16 | 0.00 | 88 | 1014.1 |
| 20260510153223 | 60 | 230 | 0.0 | 2.0 | 0.00 | 0.16 | 0.00 | 93 | 1014.4 |
| 20260510152223 | 59 | 236 | 0.0 | 2.0 | 0.00 | 0.16 | 0.00 | 97 | 1014.3 |
| 20260510151723 | 59 | 236 | 0.0 | 1.0 | 0.00 | 0.16 | 0.00 | 98 | 1014.3 |
| 20260510151223 | 58 | 255 | 0.0 | 1.0 | 0.00 | 0.16 | 0.00 | 98 | 1013.9 |
| 20260510150723 | 57 | 268 | 0.0 | 1.0 | 0.00 | 0.16 | 0.00 | 99 | 1013.9 |
| 20260510150223 | 57 | 296 | 1.0 | 2.0 | 0.00 | 0.16 | 0.00 | 99 | 1014.2 |
| 20260510144720 | 57 | 249 | 0.0 | 2.0 | 0.00 | 0.16 | 0.00 | 99 | 1014.2 |
| 20260510144221 | 56 | 193 | 0.0 | 2.0 | 0.00 | 0.16 | 0.00 | 99 | 1014.3 |
| 20260510143720 | 56 | 252 | 0.0 | 1.0 | 0.00 | 0.16 | 0.00 | 99 | 1014.1 |
| 20260510143222 | 56 | 248 | 0.0 | 1.0 | 0.00 | 0.16 | 0.00 | 99 | 1013.9 |
| 20260510142721 | 56 | 270 | 0.0 | 1.0 | 0.00 | 0.16 | 0.00 | 99 | 1014.4 |
| 20260510142221 | 56 | 232 | 1.0 | 2.0 | 0.00 | 0.16 | 0.00 | 99 | 1014.2 |
| 20260510141722 | 55 | 251 | 0.0 | 2.0 | 0.00 | 0.16 | 0.00 | 99 | 1014.0 |
| 20260510141222 | 55 | 205 | 0.0 | 1.0 | 0.00 | 0.16 | 0.00 | 99 | 1013.9 |
| 20260510140221 | 55 | 255 | 0.0 | 1.0 | 0.00 | 0.16 | 0.00 | 99 | 1014.0 |
| 20260510135722 | 55 | 230 | 0.0 | 1.0 | 0.00 | 0.16 | 0.00 | 99 | 1014.0 |
| 20260510135221 | 55 | 241 | 0.0 | 1.0 | 0.00 | 0.16 | 0.00 | 99 | 1014.1 |
| 20260510134722 | 55 | 242 | 0.0 | 1.0 | 0.00 | 0.16 | 0.00 | 99 | 1014.0 |
| 20260510134222 | 55 | 272 | 0.0 | 1.0 | 0.00 | 0.16 | 0.00 | 99 | 1014.1 |
| 20260510133722 | 55 | 240 | 0.0 | 1.0 | 0.00 | 0.16 | 0.00 | 99 | 1013.9 |
| 20260510132722 | 55 | 241 | 0.0 | 1.0 | 0.00 | 0.16 | 0.00 | 99 | 1014.0 |
| 20260510132221 | 55 | 257 | 0.0 | 0.0 | 0.00 | 0.16 | 0.00 | 99 | 1013.9 |
| 20260510131721 | 55 | 259 | 0.0 | 1.0 | 0.00 | 0.16 | 0.00 | 99 | 1014.0 |
| 20260510130721 | 55 | 242 | 0.0 | 1.0 | 0.00 | 0.16 | 0.00 | 99 | 1013.8 |
| 20260510130221 | 55 | 235 | 0.0 | 1.0 | 0.00 | 0.16 | 0.00 | 99 | 1013.8 |
| 20260510124721 | 55 | 242 | 0.0 | 2.0 | 0.00 | 0.16 | 0.00 | 99 | 1013.4 |
| 20260510124220 | 55 | 238 | 0.0 | 1.0 | 0.00 | 0.16 | 0.00 | 99 | 1013.3 |
| 20260510123720 | 55 | 252 | 0.0 | 1.0 | 0.00 | 0.16 | 0.00 | 99 | 1013.1 |
| 20260510123221 | 55 | 242 | 0.0 | 2.0 | 0.00 | 0.16 | 0.00 | 99 | 1013.3 |
| 20260510122720 | 54 | 240 | 0.0 | 2.0 | 0.00 | 0.16 | 0.00 | 99 | 1013.3 |
| 20260510121721 | 55 | 244 | 0.0 | 1.0 | 0.00 | 0.16 | 0.00 | 99 | 1013.2 |
| 20260510121220 | 55 | 248 | 0.0 | 0.0 | 0.00 | 0.16 | 0.00 | 99 | 1013.3 |
| 20260510120720 | 54 | 266 | 0.0 | 0.0 | 0.00 | 0.16 | 0.00 | 99 | 1013.3 |
| 20260510120220 | 55 | 256 | 0.0 | 1.0 | 0.00 | 0.16 | 0.00 | 99 | 1013.4 |
| 20260510115219 | 55 | 234 | 0.0 | 1.0 | 0.00 | 0.16 | 0.00 | 99 | 1013.1 |
| 20260510114720 | 54 | 252 | 0.0 | 2.0 | 0.00 | 0.16 | 0.00 | 99 | 1012.9 |
| 20260510114219 | 54 | 184 | 1.0 | 2.0 | 0.00 | 0.16 | 0.00 | 99 | 1013.2 |
| 20260510113719 | 54 | 270 | 0.0 | 0.0 | 0.00 | 0.16 | 0.00 | 99 | 1012.9 |
| 20260510113219 | 54 | 258 | 0.0 | 0.0 | 0.00 | 0.16 | 0.00 | 99 | 1012.8 |
| 20260510112719 | 54 | 253 | 0.0 | 0.0 | 0.00 | 0.16 | 0.00 | 99 | 1012.9 |
| 20260510111720 | 54 | 257 | 0.0 | 0.0 | 0.00 | 0.16 | 0.00 | 99 | 1012.6 |
| 20260510111220 | 54 | 258 | 0.0 | 0.0 | 0.00 | 0.16 | 0.00 | 99 | 1012.9 |
| 20260510110720 | 54 | 260 | 0.0 | 0.0 | 0.00 | 0.16 | 0.00 | 99 | 1012.9 |
| 20260510110220 | 54 | 248 | 0.0 | 0.0 | 0.00 | 0.16 | 0.00 | 99 | 1012.5 |
| 20260510105720 | 54 | 255 | 0.0 | 2.0 | 0.00 | 0.16 | 0.00 | 99 | 1012.3 |
| 20260510105220 | 53 | 245 | 0.0 | 2.0 | 0.00 | 0.16 | 0.00 | 99 | 1012.2 |
| 20260510104720 | 53 | 270 | 0.0 | 1.0 | 0.00 | 0.16 | 0.00 | 99 | 1012.4 |
| 20260510104220 | 53 | 269 | 0.0 | 0.0 | 0.00 | 0.16 | 0.00 | 99 | 1012.1 |
| 20260510103720 | 53 | 268 | 0.0 | 0.0 | 0.00 | 0.16 | 0.00 | 99 | 1012.1 |
| 20260510102721 | 53 | 260 | 0.0 | 1.0 | 0.00 | 0.16 | 0.00 | 99 | 1012.6 |
| 20260510102220 | 53 | 259 | 0.0 | 1.0 | 0.00 | 0.16 | 0.00 | 99 | 1012.4 |
| 20260510101720 | 53 | 264 | 0.0 | 1.0 | 0.00 | 0.16 | 0.00 | 99 | 1012.4 |
| 20260510101220 | 53 | 251 | 0.0 | 1.0 | 0.00 | 0.16 | 0.00 | 99 | 1012.2 |
| 20260510100721 | 53 | 269 | 0.0 | 1.0 | 0.00 | 0.16 | 0.00 | 99 | 1012.3 |
| 20260510094721 | 53 | 250 | 0.0 | 2.0 | 0.00 | 0.16 | 0.00 | 99 | 1012.3 |
| 20260510094220 | 53 | 258 | 0.0 | 2.0 | 0.00 | 0.16 | 0.00 | 99 | 1012.4 |
| 20260510093720 | 53 | 253 | 0.0 | 3.0 | 0.00 | 0.16 | 0.00 | 99 | 1012.3 |
| 20260510093206 | 53 | 278 | 0.0 | 3.0 | 0.00 | 0.16 | 0.00 | 99 | 1012.4 |
| 20260510092707 | 53 | 280 | 0.0 | 2.0 | 0.00 | 0.16 | 0.00 | 99 | 1012.5 |
| 20260510092155 | 53 | 274 | 1.0 | 3.0 | 0.00 | 0.16 | 0.00 | 99 | 1012.4 |
| 20260510091155 | 53 | 313 | 1.0 | 3.0 | 0.00 | 0.16 | 0.00 | 99 | 1012.6 |
| 20260510090643 | 53 | 347 | 1.0 | 3.0 | 0.00 | 0.16 | 0.00 | 99 | 1012.7 |
| 20260510090143 | 53 | 266 | 0.0 | 3.0 | 0.00 | 0.16 | 0.00 | 99 | 1012.8 |
| 20260510085643 | 53 | 257 | 1.0 | 1.0 | 0.00 | 0.16 | 0.00 | 99 | 1012.7 |
| 20260510084632 | 52 | 294 | 0.0 | 1.0 | 0.00 | 0.16 | 0.00 | 99 | 1012.6 |
| 20260510084133 | 52 | 267 | 0.0 | 0.0 | 0.00 | 0.16 | 0.00 | 99 | 1012.2 |
| 20260510083632 | 52 | 258 | 0.0 | 0.0 | 0.00 | 0.16 | 0.00 | 99 | 1012.1 |
| 20260510083132 | 52 | 255 | 0.0 | 0.0 | 0.00 | 0.16 | 0.00 | 99 | 1012.0 |
| 20260510082633 | 52 | 255 | 0.0 | 0.0 | 0.00 | 0.16 | 0.00 | 99 | 1012.0 |
| 20260510082132 | 52 | 255 | 0.0 | 0.0 | 0.00 | 0.16 | 0.00 | 99 | 1012.1 |
| 20260510081632 | 51 | 255 | 0.0 | 0.0 | 0.00 | 0.16 | 0.00 | 99 | 1011.9 |
| 20260510081131 | 51 | 255 | 0.0 | 0.0 | 0.00 | 0.16 | 0.00 | 99 | 1012.2 |
| 20260510080631 | 51 | 256 | 0.0 | 0.0 | 0.00 | 0.16 | 0.00 | 99 | 1011.8 |
| 20260510080131 | 51 | 259 | 0.0 | 0.0 | 0.00 | 0.16 | 0.00 | 99 | 1011.8 |
| 20260510075631 | 51 | 255 | 0.0 | 0.0 | 0.00 | 0.16 | 0.00 | 99 | 1011.8 |
| 20260510075131 | 51 | 253 | 0.0 | 0.0 | 0.00 | 0.16 | 0.00 | 99 | 1011.9 |
| 20260510074632 | 51 | 254 | 0.0 | 0.0 | 0.00 | 0.16 | 0.00 | 99 | 1011.8 |
| 20260510074132 | 51 | 255 | 0.0 | 0.0 | 0.00 | 0.16 | 0.00 | 99 | 1011.6 |
| 20260510073632 | 51 | 254 | 0.0 | 0.0 | 0.00 | 0.16 | 0.00 | 99 | 1011.7 |
| 20260510073131 | 51 | 271 | 0.0 | 0.0 | 0.00 | 0.16 | 0.00 | 99 | 1011.6 |
| 20260510072631 | 51 | 266 | 0.0 | 0.0 | 0.00 | 0.16 | 0.00 | 99 | 1011.8 |
| 20260510072131 | 51 | 267 | 0.0 | 0.0 | 0.00 | 0.16 | 0.00 | 99 | 1011.9 |
| 20260510071134 | 51 | 266 | 0.0 | 1.0 | 0.00 | 0.16 | 0.00 | 99 | 1011.8 |
| 20260510070632 | 51 | 274 | 0.0 | 1.0 | 0.00 | 0.16 | 0.00 | 99 | 1011.6 |
| 20260510070131 | 50 | 291 | 1.0 | 1.0 | 0.00 | 0.16 | 0.00 | 99 | 1011.6 |
| 20260510065631 | 50 | 267 | 0.0 | 2.0 | 0.00 | 0.16 | 0.00 | 99 | 1011.6 |
| 20260510065120 | 50 | 298 | 1.0 | 2.0 | 0.00 | 0.16 | 0.00 | 99 | 1011.6 |
| 20260510064619 | 50 | 264 | 0.0 | 1.0 | 0.00 | 0.16 | 0.00 | 99 | 1011.5 |
| 20260510064119 | 50 | 243 | 0.0 | 1.0 | 0.00 | 0.16 | 0.00 | 99 | 1011.7 |
| 20260510063619 | 50 | 243 | 0.0 | 1.0 | 0.00 | 0.16 | 0.00 | 99 | 1011.4 |
| 20260510063119 | 50 | 243 | 0.0 | 1.0 | 0.00 | 0.16 | 0.00 | 99 | 1011.4 |
| 20260510062620 | 50 | 242 | 0.0 | 0.0 | 0.00 | 0.16 | 0.00 | 99 | 1011.5 |
| 20260510062120 | 50 | 242 | 0.0 | 1.0 | 0.00 | 0.16 | 0.00 | 99 | 1011.6 |
| 20260510061621 | 50 | 242 | 0.0 | 1.0 | 0.00 | 0.16 | 0.00 | 99 | 1011.5 |
| 20260510061120 | 49 | 242 | 0.0 | 0.0 | 0.00 | 0.16 | 0.00 | 99 | 1011.3 |
| 20260510060621 | 49 | 242 | 0.0 | 0.0 | 0.00 | 0.16 | 0.00 | 99 | 1011.4 |
| 20260510060121 | 50 | 242 | 0.0 | 0.0 | 0.00 | 0.16 | 0.00 | 99 | 1011.5 |
| 20260510055621 | 49 | 242 | 0.0 | 0.0 | 0.00 | 0.16 | 0.00 | 99 | 1011.7 |
| 20260510055120 | 49 | 242 | 0.0 | 0.0 | 0.00 | 0.16 | 0.00 | 99 | 1011.5 |
| 20260510054619 | 50 | 242 | 0.0 | 0.0 | 0.00 | 0.16 | 0.00 | 99 | 1011.6 |
| 20260510054119 | 49 | 242 | 0.0 | 0.0 | 0.00 | 0.16 | 0.00 | 99 | 1011.7 |
| 20260510053619 | 49 | 242 | 0.0 | 0.0 | 0.00 | 0.16 | 0.00 | 99 | 1011.6 |
| 20260510052619 | 49 | 241 | 0.0 | 0.0 | 0.00 | 0.16 | 0.00 | 99 | 1011.6 |
| 20260510052119 | 49 | 241 | 0.0 | 0.0 | 0.00 | 0.16 | 0.00 | 99 | 1011.7 |
| 20260510051619 | 48 | 241 | 0.0 | 0.0 | 0.00 | 0.16 | 0.00 | 99 | 1011.9 |
| 20260510050619 | 49 | 241 | 0.0 | 0.0 | 0.00 | 0.16 | 0.00 | 99 | 1011.6 |
| 20260510050121 | 49 | 241 | 0.0 | 0.0 | 0.00 | 0.16 | 0.00 | 99 | 1012.0 |
| 20260510045620 | 49 | 241 | 0.0 | 0.0 | 0.00 | 0.16 | 0.00 | 99 | 1011.6 |
| 20260510045118 | 49 | 241 | 0.0 | 0.0 | 0.00 | 0.16 | 0.00 | 99 | 1011.6 |
| 20260510044619 | 49 | 241 | 0.0 | 0.0 | 0.00 | 0.16 | 0.00 | 99 | 1011.8 |
| 20260510044119 | 50 | 241 | 0.0 | 0.0 | 0.00 | 0.16 | 0.00 | 99 | 1011.9 |
| 20260510043607 | 49 | 241 | 0.0 | 0.0 | 0.00 | 0.16 | 0.00 | 99 | 1011.9 |
| 20260510043107 | 50 | 241 | 0.0 | 0.0 | 0.00 | 0.16 | 0.00 | 99 | 1011.8 |
| 20260510042608 | 50 | 241 | 0.0 | 0.0 | 0.00 | 0.16 | 0.00 | 99 | 1011.9 |
| 20260510042055 | 49 | 241 | 0.0 | 0.0 | 0.00 | 0.16 | 0.00 | 99 | 1011.8 |
| 20260510041555 | 50 | 242 | 0.0 | 0.0 | 0.00 | 0.16 | 0.00 | 99 | 1012.0 |
| 20260510041055 | 50 | 241 | 0.0 | 0.0 | 0.00 | 0.16 | 0.00 | 99 | 1011.6 |
| 20260510040543 | 50 | 241 | 0.0 | 0.0 | 0.00 | 0.16 | 0.00 | 99 | 1011.7 |
| 20260510040043 | 50 | 242 | 0.0 | 0.0 | 0.00 | 0.16 | 0.00 | 99 | 1011.9 |
| 20260510035043 | 50 | 241 | 0.0 | 0.0 | 0.00 | 0.16 | 0.16 | 99 | 1011.5 |
| 20260510034544 | 50 | 241 | 0.0 | 0.0 | 0.00 | 0.16 | 0.16 | 98 | 1011.8 |
| 20260510033543 | 50 | 241 | 0.0 | 0.0 | 0.00 | 0.16 | 0.16 | 98 | 1011.8 |
| 20260510033043 | 50 | 241 | 0.0 | 0.0 | 0.00 | 0.16 | 0.16 | 98 | 1011.4 |
| 20260510032043 | 51 | 241 | 0.0 | 0.0 | 0.00 | 0.16 | 0.16 | 98 | 1011.5 |
| 20260510031543 | 50 | 241 | 0.0 | 0.0 | 0.00 | 0.16 | 0.16 | 98 | 1011.4 |
| 20260510031043 | 51 | 241 | 0.0 | 0.0 | 0.00 | 0.16 | 0.16 | 98 | 1011.5 |
| 20260510030043 | 51 | 242 | 0.0 | 0.0 | 0.00 | 0.16 | 0.16 | 98 | 1011.6 |
| 20260510025543 | 52 | 242 | 0.0 | 0.0 | 0.00 | 0.16 | 0.16 | 98 | 1011.3 |
| 20260510025043 | 51 | 241 | 0.0 | 0.0 | 0.00 | 0.16 | 0.16 | 98 | 1011.3 |
| 20260510024543 | 51 | 241 | 0.0 | 0.0 | 0.00 | 0.16 | 0.16 | 98 | 1011.5 |
| 20260510024043 | 52 | 242 | 0.0 | 0.0 | 0.00 | 0.16 | 0.16 | 98 | 1011.5 |
| 20260510023543 | 52 | 242 | 0.0 | 0.0 | 0.00 | 0.16 | 0.16 | 98 | 1011.3 |
| 20260510023043 | 52 | 241 | 0.0 | 0.0 | 0.00 | 0.16 | 0.16 | 98 | 1011.3 |
| 20260510022543 | 51 | 241 | 0.0 | 0.0 | 0.00 | 0.16 | 0.16 | 98 | 1011.5 |
| 20260510022043 | 51 | 241 | 0.0 | 0.0 | 0.00 | 0.16 | 0.16 | 98 | 1011.5 |
| 20260510021031 | 51 | 241 | 0.0 | 0.0 | 0.00 | 0.16 | 0.16 | 98 | 1011.7 |
| 20260510020531 | 52 | 241 | 0.0 | 0.0 | 0.00 | 0.16 | 0.16 | 98 | 1011.6 |
| 20260510020031 | 52 | 241 | 0.0 | 0.0 | 0.00 | 0.16 | 0.16 | 98 | 1011.3 |
| 20260510015531 | 51 | 241 | 0.0 | 0.0 | 0.00 | 0.16 | 0.16 | 98 | 1011.5 |
| 20260510015030 | 52 | 241 | 0.0 | 0.0 | 0.00 | 0.16 | 0.16 | 98 | 1011.3 |
| 20260510014031 | 52 | 241 | 0.0 | 0.0 | 0.00 | 0.16 | 0.16 | 98 | 1011.3 |
| 20260510013531 | 52 | 241 | 0.0 | 0.0 | 0.00 | 0.16 | 0.16 | 97 | 1011.3 |
| 20260510013031 | 52 | 241 | 0.0 | 0.0 | 0.00 | 0.16 | 0.16 | 97 | 1011.6 |
| 20260510012531 | 52 | 241 | 0.0 | 0.0 | 0.00 | 0.16 | 0.16 | 97 | 1011.4 |
| 20260510012031 | 52 | 241 | 0.0 | 0.0 | 0.00 | 0.16 | 0.16 | 97 | 1011.3 |
| 20260510011531 | 52 | 241 | 0.0 | 0.0 | 0.00 | 0.16 | 0.16 | 97 | 1011.3 |
| 20260510010531 | 52 | 241 | 0.0 | 0.0 | 0.00 | 0.16 | 0.16 | 97 | 1011.2 |
| 20260510005531 | 53 | 241 | 0.0 | 0.0 | 0.00 | 0.16 | 0.16 | 97 | 1010.9 |
| 20260510005031 | 53 | 241 | 0.0 | 0.0 | 0.00 | 0.16 | 0.16 | 97 | 1010.9 |
| 20260510004019 | 52 | 241 | 0.0 | 0.0 | 0.00 | 0.16 | 0.16 | 97 | 1011.1 |
| 20260510003519 | 52 | 241 | 0.0 | 0.0 | 0.00 | 0.16 | 0.16 | 96 | 1011.1 |
| 20260510003018 | 53 | 241 | 0.0 | 0.0 | 0.00 | 0.16 | 0.16 | 96 | 1011.2 |
| 20260510002519 | 53 | 241 | 0.0 | 0.0 | 0.00 | 0.16 | 0.16 | 96 | 1010.8 |
| 20260510001519 | 54 | 241 | 0.0 | 0.0 | 0.00 | 0.16 | 0.16 | 96 | 1010.9 |
| 20260510001019 | 54 | 241 | 0.0 | 0.0 | 0.00 | 0.16 | 0.16 | 96 | 1010.8 |
| 20260510000519 | 54 | 241 | 0.0 | 0.0 | 0.00 | 0.16 | 0.16 | 95 | 1010.7 |
| 20260510000019 | 54 | 241 | 0.0 | 0.0 | 0.00 | 0.16 | 0.16 | 95 | 1010.7 |
| 20260509235519 | 54 | 241 | 0.0 | 0.0 | 0.00 | 0.16 | 0.16 | 95 | 1010.8 |
| 20260509234507 | 55 | 241 | 0.0 | 0.0 | 0.00 | 0.16 | 0.16 | 95 | 1010.8 |
| 20260509234007 | 55 | 241 | 0.0 | 1.0 | 0.00 | 0.16 | 0.16 | 94 | 1010.7 |
| 20260509233007 | 56 | 244 | 0.0 | 1.0 | 0.00 | 0.16 | 0.16 | 94 | 1010.5 |
| 20260509232506 | 56 | 270 | 0.0 | 0.0 | 0.00 | 0.16 | 0.16 | 94 | 1010.4 |
| 20260509232007 | 57 | 270 | 0.0 | 0.0 | 0.00 | 0.16 | 0.16 | 94 | 1010.3 |
| 20260509231507 | 57 | 269 | 0.0 | 0.0 | 0.00 | 0.16 | 0.16 | 94 | 1010.8 |
| 20260509231007 | 57 | 269 | 0.0 | 1.0 | 0.01 | 0.16 | 0.16 | 94 | 1010.7 |